createdAt,value
2019-04-22T00:00:41.284Z,14.74
2019-04-22T00:03:17.968Z,14.74
2019-04-22T00:06:12.983Z,14.70
2019-04-22T00:08:54.228Z,14.59
2019-04-22T00:11:29.195Z,14.59
2019-04-22T00:16:47.232Z,14.57
2019-04-22T00:19:31.479Z,14.45
2019-04-22T00:21:48.998Z,14.50
2019-04-22T00:24:27.581Z,14.50
2019-04-22T00:27:09.929Z,14.42
2019-04-22T00:29:49.394Z,14.42
2019-04-22T00:32:08.683Z,14.38
2019-04-22T00:34:44.015Z,14.30
2019-04-22T00:37:23.495Z,14.30
2019-04-22T00:39:57.814Z,14.27
2019-04-22T00:42:36.061Z,14.33
2019-04-22T00:45:11.665Z,14.33
2019-04-22T00:47:38.019Z,14.23
2019-04-22T00:50:20.410Z,14.13
2019-04-22T00:52:57.944Z,14.13
2019-04-22T00:55:31.411Z,14.11
2019-04-22T00:58:11.646Z,13.98
2019-04-22T01:00:44.442Z,14.01
2019-04-22T01:03:19.640Z,13.75
2019-04-22T01:05:58.434Z,13.80
2019-04-22T01:08:34.618Z,13.75
2019-04-22T01:11:14.968Z,13.75
2019-04-22T01:13:38.354Z,13.86
2019-04-22T01:16:17.094Z,13.87
2019-04-22T01:18:50.603Z,13.85
2019-04-22T01:21:28.869Z,13.88
2019-04-22T01:23:57.582Z,13.66
2019-04-22T01:26:33.118Z,13.66
2019-04-22T01:29:01.039Z,13.67
2019-04-22T01:31:30.501Z,13.57
2019-04-22T01:34:10.983Z,13.60
2019-04-22T01:36:55.467Z,13.48
2019-04-22T01:39:40.298Z,13.50
2019-04-22T01:42:10.776Z,13.46
2019-04-22T01:44:45.248Z,13.42
2019-04-22T01:47:30.251Z,13.37
2019-04-22T01:49:59.186Z,13.38
2019-04-22T01:52:52.782Z,13.33
2019-04-22T01:57:41.502Z,13.38
2019-04-22T02:00:11.316Z,13.41
2019-04-22T02:02:59.215Z,13.39
2019-04-22T02:05:31.459Z,13.39
2019-04-22T02:08:16.590Z,13.30
2019-04-22T02:10:47.762Z,13.27
2019-04-22T02:13:27.247Z,13.27
2019-04-22T02:15:58.786Z,13.22
2019-04-22T02:18:39.424Z,13.17
2019-04-22T02:21:09.568Z,13.16
2019-04-22T02:23:50.996Z,13.09
2019-04-22T02:26:32.637Z,13.14
2019-04-22T02:29:09.252Z,13.11
2019-04-22T02:31:43.281Z,13.10
2019-04-22T02:34:18.238Z,13.10
2019-04-22T02:36:41.144Z,13.11
2019-04-22T02:39:19.878Z,13.04
2019-04-22T02:41:54.804Z,13.04
2019-04-22T02:44:31.477Z,12.74
2019-04-22T02:47:18.407Z,12.83
2019-04-22T02:49:37.573Z,12.91
2019-04-22T02:52:30.982Z,12.91
2019-04-22T02:55:00.321Z,12.83
2019-04-22T02:57:39.935Z,12.71
2019-04-22T03:00:14.113Z,12.71
2019-04-22T03:05:22.017Z,12.81
2019-04-22T03:10:29.476Z,12.75
2019-04-22T03:13:01.195Z,12.74
2019-04-22T03:15:42.515Z,12.69
2019-04-22T03:18:27.351Z,12.62
2019-04-22T03:20:50.177Z,12.65
2019-04-22T03:23:34.219Z,12.65
2019-04-22T03:26:22.725Z,12.48
2019-04-22T03:28:44.373Z,12.46
2019-04-22T03:31:34.405Z,12.46
2019-04-22T03:34:39.208Z,12.40
2019-04-22T03:37:04.539Z,12.40
2019-04-22T03:47:01.820Z,12.17
2019-04-22T03:52:16.422Z,12.17
2019-04-22T04:00:08.273Z,12.00
2019-04-22T04:02:29.379Z,11.98
2019-04-22T04:05:24.347Z,11.97
2019-04-22T04:07:47.895Z,11.97
2019-04-22T04:10:19.298Z,11.91
2019-04-22T04:15:30.428Z,11.89
2019-04-22T04:25:54.341Z,11.59
2019-04-22T04:28:39.758Z,11.74
2019-04-22T04:31:00.580Z,11.52
2019-04-22T04:33:35.526Z,11.49
2019-04-22T04:36:07.950Z,11.49
2019-04-22T04:38:46.121Z,11.28
2019-04-22T04:44:15.248Z,11.38
2019-04-22T04:46:37.571Z,11.20
2019-04-22T04:51:37.883Z,11.34
2019-04-22T04:54:25.618Z,11.34
2019-04-22T04:56:46.961Z,11.58
2019-04-22T05:02:06.324Z,11.67
2019-04-22T05:04:52.767Z,11.70
2019-04-22T05:09:46.969Z,11.62
2019-04-22T05:12:42.342Z,12.12
2019-04-22T05:14:55.010Z,12.12
2019-04-22T05:17:41.190Z,12.29
2019-04-22T05:20:13.412Z,12.22
2019-04-22T05:22:39.938Z,12.22
2019-04-22T05:28:06.840Z,12.31
2019-04-22T05:30:27.932Z,12.43
2019-04-22T05:33:01.481Z,12.43
2019-04-22T05:35:44.370Z,12.54
2019-04-22T05:40:40.767Z,12.83
2019-04-22T05:43:22.704Z,12.76
2019-04-22T05:46:00.573Z,12.76
2019-04-22T05:48:38.070Z,12.71
2019-04-22T05:51:16.338Z,12.92
2019-04-22T05:53:47.935Z,12.92
2019-04-22T05:56:26.724Z,13.26
2019-04-22T05:59:02.444Z,13.26
2019-04-22T06:01:45.675Z,13.22
2019-04-22T06:06:35.592Z,13.35
2019-04-22T06:09:20.566Z,13.35
2019-04-22T06:11:46.420Z,13.58
2019-04-22T06:14:25.889Z,13.58
2019-04-22T06:17:08.197Z,13.79
2019-04-22T06:19:39.994Z,13.79
2019-04-22T06:22:22.425Z,13.86
2019-04-22T06:24:54.131Z,14.02
2019-04-22T06:27:29.089Z,14.11
2019-04-22T06:30:06.292Z,14.11
2019-04-22T06:32:31.451Z,14.11
2019-04-22T06:35:18.122Z,14.21
2019-04-22T06:38:10.618Z,14.59
2019-04-22T06:40:26.083Z,14.72
2019-04-22T06:43:06.055Z,14.72
2019-04-22T06:45:35.412Z,14.86
2019-04-22T06:48:12.811Z,14.86
2019-04-22T06:53:26.595Z,14.87
2019-04-22T06:56:14.324Z,14.87
2019-04-22T06:58:28.905Z,14.95
2019-04-22T07:01:09.851Z,15.34
2019-04-22T07:06:35.456Z,15.46
2019-04-22T07:09:18.604Z,15.80
2019-04-22T07:11:28.118Z,15.80
2019-04-22T07:19:13.593Z,16.25
2019-04-22T07:21:50.914Z,16.21
2019-04-22T07:27:04.630Z,16.53
2019-04-22T07:29:39.211Z,16.64
2019-04-22T07:32:15.218Z,16.82
2019-04-22T07:37:31.752Z,17.10
2019-04-22T07:39:58.259Z,17.10
2019-04-22T07:42:36.896Z,17.00
2019-04-22T07:45:10.109Z,17.00
2019-04-22T07:47:44.401Z,17.18
2019-04-22T07:52:51.824Z,17.58
2019-04-22T07:55:32.590Z,17.60
2019-04-22T07:58:16.912Z,17.48
2019-04-22T08:00:38.731Z,17.48
2019-04-22T08:03:22.685Z,17.92
2019-04-22T08:11:18.907Z,18.05
2019-04-22T08:13:43.729Z,18.05
2019-04-22T08:16:28.453Z,18.41
2019-04-22T08:18:47.213Z,18.63
2019-04-22T08:21:22.221Z,18.63
2019-04-22T08:24:03.073Z,18.95
2019-04-22T08:26:39.478Z,19.25
2019-04-22T08:29:14.856Z,19.26
2019-04-22T08:31:48.761Z,19.29
2019-04-22T08:37:37.417Z,19.46
2019-04-22T08:39:32.795Z,19.46
2019-04-22T08:42:23.516Z,19.51
2019-04-22T08:45:05.883Z,19.86
2019-04-22T08:47:29.449Z,19.85
2019-04-22T08:50:04.884Z,20.10
2019-04-22T08:52:38.501Z,20.10
2019-04-22T08:55:15.861Z,20.11
2019-04-22T08:58:03.677Z,20.11
2019-04-22T09:00:20.298Z,20.27
2019-04-22T09:02:53.947Z,20.32
2019-04-22T09:05:53.545Z,20.32
2019-04-22T09:10:43.578Z,20.53
2019-04-22T09:13:14.503Z,20.73
2019-04-22T09:15:49.104Z,20.84
2019-04-22T09:21:15.407Z,20.84
2019-04-22T09:23:50.583Z,20.91
2019-04-22T09:26:18.519Z,20.77
2019-04-22T09:29:06.579Z,20.77
2019-04-22T09:31:24.227Z,20.78
2019-04-22T09:34:04.365Z,20.80
2019-04-22T09:39:14.989Z,21.25
2019-04-22T09:44:21.728Z,21.19
2019-04-22T09:47:05.135Z,21.19
2019-04-22T09:49:46.644Z,21.16
2019-04-22T09:52:11.503Z,21.26
2019-04-22T09:54:56.560Z,21.44
2019-04-22T09:57:23.329Z,21.44
2019-04-22T10:02:38.967Z,21.64
2019-04-22T10:05:21.107Z,21.78
2019-04-22T10:07:42.303Z,22.06
2019-04-22T10:10:23.848Z,22.31
2019-04-22T10:12:57.805Z,22.31
2019-04-22T10:15:35.256Z,22.32
2019-04-22T10:18:02.935Z,22.32
2019-04-22T10:20:38.259Z,22.45
2019-04-22T10:23:20.206Z,22.47
2019-04-22T10:25:52.547Z,22.41
2019-04-22T10:28:32.358Z,22.53
2019-04-22T10:31:07.258Z,22.53
2019-04-22T10:33:33.874Z,22.44
2019-04-22T10:35:49.650Z,22.56
2019-04-22T10:38:24.110Z,22.70
2019-04-22T10:40:58.663Z,22.82
2019-04-22T10:43:32.988Z,22.82
2019-04-22T10:46:08.223Z,23.37
2019-04-22T10:48:42.194Z,23.49
2019-04-22T10:51:16.932Z,23.49
2019-04-22T10:53:51.269Z,23.87
2019-04-22T10:56:25.356Z,24.03
2019-04-22T10:59:00.445Z,23.89
2019-04-22T11:01:38.127Z,23.99
2019-04-22T11:04:11.109Z,23.99
2019-04-22T11:06:53.116Z,24.01
2019-04-22T11:09:23.354Z,24.08
2019-04-22T11:12:02.204Z,24.16
2019-04-22T11:14:32.744Z,24.40
2019-04-22T11:17:07.418Z,24.47
2019-04-22T11:19:43.516Z,24.59
2019-04-22T11:22:22.954Z,24.75
2019-04-22T11:24:53.336Z,24.65
2019-04-22T11:27:28.713Z,24.84
2019-04-22T11:30:03.951Z,24.84
2019-04-22T11:32:38.222Z,24.88
2019-04-22T11:35:13.913Z,24.89
2019-04-22T11:37:48.651Z,24.97
2019-04-22T11:40:30.031Z,25.04
2019-04-22T11:42:59.594Z,25.09
2019-04-22T11:45:33.322Z,25.26
2019-04-22T11:48:06.989Z,25.26
2019-04-22T11:50:42.004Z,25.55
2019-04-22T11:53:16.677Z,25.55
2019-04-22T11:55:50.844Z,25.48
2019-04-22T11:58:24.766Z,25.48
2019-04-22T12:00:59.190Z,25.57
2019-04-22T12:03:33.829Z,25.57
2019-04-22T12:06:08.407Z,25.65
2019-04-22T12:08:43.702Z,25.89
2019-04-22T12:11:18.614Z,25.89
2019-04-22T12:13:53.814Z,25.81
2019-04-22T12:16:27.873Z,25.79
2019-04-22T12:19:02.962Z,26.01
2019-04-22T12:21:37.180Z,26.01
2019-04-22T12:24:11.041Z,25.88
2019-04-22T12:26:46.301Z,25.88
2019-04-22T12:29:20.722Z,26.27
2019-04-22T12:31:55.605Z,26.19
2019-04-22T12:34:29.440Z,26.19
2019-04-22T12:37:04.538Z,26.44
2019-04-22T12:39:39.245Z,26.20
2019-04-22T12:42:13.242Z,26.42
2019-04-22T12:44:47.712Z,26.40
2019-04-22T12:47:22.371Z,26.35
2019-04-22T12:50:06.848Z,26.48
2019-04-22T12:52:39.058Z,26.47
2019-04-22T12:55:07.982Z,26.55
2019-04-22T12:57:42.825Z,26.60
2019-04-22T13:00:17.651Z,26.60
2019-04-22T13:02:51.521Z,26.65
2019-04-22T13:05:25.250Z,26.71
2019-04-22T13:08:00.095Z,26.71
2019-04-22T13:10:47.278Z,26.85
2019-04-22T13:13:09.293Z,27.08
2019-04-22T13:15:44.506Z,27.16
2019-04-22T13:18:28.862Z,27.16
2019-04-22T13:20:54.768Z,27.53
2019-04-22T13:23:29.838Z,27.53
2019-04-22T13:26:05.053Z,27.73
2019-04-22T13:28:39.078Z,27.73
2019-04-22T13:31:13.848Z,27.55
2019-04-22T13:33:51.281Z,27.55
2019-04-22T13:36:27.395Z,28.09
2019-04-22T13:39:00.711Z,28.09
2019-04-22T13:41:43.956Z,28.10
2019-04-22T13:44:10.013Z,28.10
2019-04-22T13:47:04.096Z,28.31
2019-04-22T13:49:49.819Z,28.73
2019-04-22T13:52:35.674Z,28.73
2019-04-22T13:57:27.648Z,29.04
2019-04-22T13:59:48.127Z,29.04
2019-04-22T14:02:18.810Z,29.05
2019-04-22T14:04:52.834Z,29.18
2019-04-22T14:07:26.592Z,29.18
2019-04-22T14:10:00.308Z,29.40
2019-04-22T14:12:34.900Z,29.58
2019-04-22T14:15:09.884Z,29.80
2019-04-22T14:17:45.257Z,29.67
2019-04-22T14:20:20.342Z,29.67
2019-04-22T14:22:54.759Z,29.80
2019-04-22T14:25:28.547Z,29.67
2019-04-22T14:28:09.591Z,29.69
2019-04-22T14:30:39.335Z,29.69
2019-04-22T14:33:14.104Z,29.79
2019-04-22T14:35:48.093Z,30.17
2019-04-22T14:38:21.965Z,29.86
2019-04-22T14:40:56.180Z,29.60
2019-04-22T14:44:00.064Z,29.78
2019-04-22T14:46:33.380Z,29.78
2019-04-22T14:49:06.770Z,29.75
2019-04-22T14:51:39.641Z,29.63
2019-04-22T14:54:09.766Z,29.24
2019-04-22T14:56:28.521Z,29.24
2019-04-22T14:59:02.941Z,29.01
2019-04-22T15:01:41.027Z,29.11
2019-04-22T15:04:13.324Z,29.11
2019-04-22T15:06:50.096Z,29.18
2019-04-22T15:09:24.271Z,29.54
2019-04-22T15:12:08.743Z,29.90
2019-04-22T15:14:33.594Z,29.90
2019-04-22T15:17:07.306Z,30.05
2019-04-22T15:19:40.979Z,29.70
2019-04-22T15:22:14.736Z,29.70
2019-04-22T15:24:48.485Z,29.92
2019-04-22T15:27:22.592Z,29.39
2019-04-22T15:29:57.085Z,28.89
2019-04-22T15:32:31.671Z,28.89
2019-04-22T15:35:07.275Z,29.14
2019-04-22T15:37:41.491Z,29.42
2019-04-22T15:40:16.538Z,29.77
2019-04-22T15:42:50.737Z,29.67
2019-04-22T15:45:25.905Z,29.67
2019-04-22T15:47:59.977Z,30.53
2019-04-22T15:50:34.888Z,31.46
2019-04-22T15:53:09.800Z,32.13
2019-04-22T15:55:44.908Z,32.40
2019-04-22T15:58:19.750Z,32.40
2019-04-22T16:01:02.610Z,32.80
2019-04-22T16:03:29.151Z,32.41
2019-04-22T16:06:03.991Z,32.58
2019-04-22T16:08:40.906Z,32.58
2019-04-22T16:11:14.005Z,32.12
2019-04-22T16:13:48.424Z,32.18
2019-04-22T16:16:22.900Z,32.18
2019-04-22T16:18:58.445Z,31.02
2019-04-22T16:21:40.479Z,29.81
2019-04-22T16:24:08.975Z,29.28
2019-04-22T16:26:44.405Z,28.26
2019-04-22T16:29:19.195Z,27.55
2019-04-22T16:31:53.432Z,27.45
2019-04-22T16:34:27.368Z,26.93
2019-04-22T16:37:01.068Z,26.67
2019-04-22T16:39:34.761Z,26.32
2019-04-22T16:42:08.933Z,26.32
2019-04-22T16:44:44.501Z,26.20
2019-04-22T16:47:19.568Z,25.92
2019-04-22T16:49:53.462Z,25.92
2019-04-22T16:52:28.086Z,25.05
2019-04-22T16:55:03.335Z,25.05
2019-04-22T16:57:37.794Z,24.50
2019-04-22T17:00:12.988Z,24.24
2019-04-22T17:02:48.784Z,23.87
2019-04-22T17:05:23.217Z,23.19
2019-04-22T17:07:58.271Z,22.80
2019-04-22T17:10:33.544Z,22.80
2019-04-22T17:13:13.062Z,22.47
2019-04-22T17:15:42.793Z,22.42
2019-04-22T17:18:17.222Z,22.09
2019-04-22T17:20:51.140Z,22.09
2019-04-22T17:23:25.518Z,21.73
2019-04-22T17:26:00.660Z,21.74
2019-04-22T17:28:35.491Z,21.74
2019-04-22T17:31:10.732Z,21.25
2019-04-22T17:33:44.779Z,20.98
2019-04-22T17:36:18.501Z,20.98
2019-04-22T17:39:00.785Z,21.08
2019-04-22T17:41:44.959Z,20.69
2019-04-22T17:44:30.835Z,20.75
2019-04-22T17:46:51.331Z,20.77
2019-04-22T17:49:37.189Z,20.77
2019-04-22T17:52:10.799Z,20.52
2019-04-22T17:54:49.657Z,20.52
2019-04-22T17:57:21.877Z,20.65
2019-04-22T17:59:54.733Z,20.48
2019-04-22T18:02:28.034Z,20.48
2019-04-22T18:04:55.115Z,20.45
2019-04-22T18:07:45.792Z,20.45
2019-04-22T18:13:00.032Z,20.25
2019-04-22T18:15:29.450Z,20.35
2019-04-22T18:18:09.107Z,20.29
2019-04-22T18:20:38.140Z,20.38
2019-04-22T18:23:05.315Z,20.38
2019-04-22T18:25:52.413Z,20.18
2019-04-22T18:28:30.548Z,20.12
2019-04-22T18:30:57.075Z,20.09
2019-04-22T18:33:33.235Z,20.09
2019-04-22T18:36:09.726Z,19.98
2019-04-22T18:38:51.476Z,19.92
2019-04-22T18:41:17.836Z,19.86
2019-04-22T18:43:58.883Z,19.86
2019-04-22T18:46:37.118Z,19.86
2019-04-22T18:49:08.454Z,19.66
2019-04-22T18:51:46.330Z,19.74
2019-04-22T18:54:28.977Z,19.62
2019-04-22T18:56:59.443Z,19.45
2019-04-22T18:59:21.535Z,19.45
2019-04-22T19:01:52.384Z,19.52
2019-04-22T19:04:31.733Z,19.51
2019-04-22T19:07:31.004Z,19.50
2019-04-22T19:10:04.593Z,19.49
2019-04-22T19:12:41.626Z,19.49
2019-04-22T19:15:12.874Z,19.54
2019-04-22T19:17:55.645Z,19.54
2019-04-22T19:20:24.096Z,19.21
2019-04-22T19:22:57.716Z,19.21
2019-04-22T19:25:23.938Z,19.04
2019-04-22T19:28:11.542Z,19.14
2019-04-22T19:30:44.089Z,19.14
2019-04-22T19:33:19.206Z,19.01
2019-04-22T19:35:56.265Z,19.01
2019-04-22T19:38:16.393Z,19.02
2019-04-22T19:41:08.582Z,19.02
2019-04-22T19:43:41.819Z,18.92
2019-04-22T19:46:07.471Z,18.92
2019-04-22T19:48:50.049Z,18.92
2019-04-22T19:51:27.907Z,18.72
2019-04-22T19:53:55.959Z,18.54
2019-04-22T19:56:26.534Z,18.54
2019-04-22T19:59:02.528Z,18.57
2019-04-22T20:01:41.842Z,18.57
2019-04-22T20:04:41.344Z,18.58
2019-04-22T20:06:55.152Z,18.44
2019-04-22T20:09:35.092Z,18.50
2019-04-22T20:12:04.356Z,18.50
2019-04-22T20:14:46.400Z,18.52
2019-04-22T20:17:19.738Z,18.40
2019-04-22T20:19:55.415Z,18.39
2019-04-22T20:22:30.322Z,18.22
2019-04-22T20:24:53.844Z,18.22
2019-04-22T20:27:43.172Z,18.19
2019-04-22T20:30:20.894Z,18.21
2019-04-22T20:32:47.377Z,18.21
2019-04-22T20:35:26.505Z,17.92
2019-04-22T20:38:06.559Z,17.68
2019-04-22T20:40:40.161Z,17.85
2019-04-22T20:43:17.566Z,17.85
2019-04-22T20:45:51.604Z,17.81
2019-04-22T20:48:10.286Z,17.67
2019-04-22T20:50:57.910Z,17.58
2019-04-22T20:53:36.532Z,17.55
2019-04-22T20:56:12.350Z,17.55
2019-04-22T20:58:46.298Z,17.62
2019-04-22T21:01:15.802Z,17.62
2019-04-22T21:03:43.964Z,17.37
2019-04-22T21:06:33.770Z,17.40
2019-04-22T21:09:12.089Z,17.40
2019-04-22T21:11:40.833Z,17.53
2019-04-22T21:14:14.766Z,17.21
2019-04-22T21:16:56.254Z,17.17
2019-04-22T21:19:38.563Z,17.07
2019-04-22T21:22:10.872Z,17.18
2019-04-22T21:24:42.136Z,17.24
2019-04-22T21:27:20.963Z,17.23
2019-04-22T21:29:48.472Z,17.23
2019-04-22T21:32:29.715Z,16.91
2019-04-22T21:35:06.427Z,16.91
2019-04-22T21:37:43.353Z,16.79
2019-04-22T21:40:18.233Z,16.72
2019-04-22T21:42:54.415Z,16.72
2019-04-22T21:45:21.755Z,16.53
2019-04-22T21:48:15.503Z,16.43
2019-04-22T21:53:14.197Z,16.56
2019-04-22T21:55:50.701Z,16.55
2019-04-22T21:58:27.597Z,16.35
2019-04-22T22:01:06.443Z,16.29
2019-04-22T22:03:37.885Z,16.44
2019-04-22T22:06:02.955Z,16.53
2019-04-22T22:08:49.005Z,16.27
2019-04-22T22:11:20.102Z,16.27
2019-04-22T22:13:55.143Z,16.23
2019-04-22T22:16:30.807Z,16.02
2019-04-22T22:19:06.648Z,16.02
2019-04-22T22:24:23.126Z,15.86
2019-04-22T22:26:58.503Z,16.05
2019-04-22T22:29:43.286Z,16.05
2019-04-22T22:32:04.797Z,15.94
2019-04-22T22:34:43.467Z,15.94
2019-04-22T22:37:07.616Z,15.95
2019-04-22T22:39:39.192Z,16.08
2019-04-22T22:42:10.869Z,16.13
2019-04-22T22:44:47.742Z,16.13
2019-04-22T22:47:38.383Z,15.99
2019-04-22T22:50:12.509Z,15.99
2019-04-22T22:55:31.323Z,16.00
2019-04-22T22:58:08.232Z,16.00
2019-04-22T23:00:35.215Z,16.03
2019-04-22T23:05:50.471Z,15.76
2019-04-22T23:08:26.585Z,15.61
2019-04-22T23:11:05.590Z,15.75
2019-04-22T23:13:36.012Z,15.59
2019-04-22T23:16:00.508Z,15.59
2019-04-22T23:18:24.034Z,15.53
2019-04-22T23:20:59.294Z,15.73
2019-04-22T23:23:51.279Z,15.73
2019-04-22T23:26:29.918Z,15.53
2019-04-22T23:29:02.423Z,15.31
2019-04-22T23:31:29.432Z,15.54
2019-04-22T23:34:06.692Z,15.39
2019-04-22T23:36:45.344Z,15.40
2019-04-22T23:39:24.735Z,15.52
2019-04-22T23:42:06.176Z,15.52
2019-04-22T23:44:39.613Z,15.28
2019-04-22T23:47:06.113Z,15.28
2019-04-22T23:49:41.699Z,15.27
2019-04-22T23:52:35.722Z,15.06
2019-04-22T23:54:58.482Z,15.19
2019-04-22T23:57:33.099Z,15.19
